Time;durP1;ratioP1;P1;durP2;ratioP2;P2;SDS_P1;SDS_P2;PMS_P1;PMS_P2;Temp;Humidity;BMP_temperature;BMP_pressure;BME280_temperature;BME280_humidity;BME280_pressure;Samples;Min_cycle;Max_cycle;Signal;HPM_P1;HPM_P2
2022/03/28 00:00:32;;;;;;;9.80;6.83;;;;;;;11.39;52.40;95488.09;5053253;28;20193;-64
2022/03/28 00:02:58;;;;;;;12.73;6.63;;;;;;;11.37;52.39;95490.72;5053623;28;20624;-64
2022/03/28 00:05:24;;;;;;;11.63;6.50;;;;;;;11.37;52.50;95488.19;5053260;28;20198;-62
2022/03/28 00:07:49;;;;;;;15.83;6.87;;;;;;;11.37;52.31;95490.72;5053816;28;20303;-66
2022/03/28 00:10:15;;;;;;;9.53;6.40;;;;;;;11.36;52.84;95488.31;5053324;28;20201;-66
2022/03/28 00:12:40;;;;;;;12.07;7.10;;;;;;;11.40;52.21;95489.69;5053420;28;20189;-67
2022/03/28 00:15:07;;;;;;;11.80;6.40;;;;;;;11.61;51.93;95499.09;5051702;28;20216;-66
2022/03/28 00:17:33;;;;;;;12.60;6.40;;;;;;;11.58;51.14;95501.88;5053371;28;20279;-66
2022/03/28 00:20:00;;;;;;;9.03;6.30;;;;;;;11.45;51.86;95490.97;5052994;28;20177;-63
2022/03/28 00:22:25;;;;;;;12.87;6.83;;;;;;;11.31;52.51;95491.19;5052863;28;20221;-66
2022/03/28 00:24:51;;;;;;;9.90;6.60;;;;;;;11.13;53.23;95473.94;5052819;28;20220;-65
2022/03/28 00:27:17;;;;;;;10.70;6.70;;;;;;;10.43;54.86;95451.06;5052430;28;20300;-66
2022/03/28 00:29:44;;;;;;;12.43;7.00;;;;;;;10.48;55.23;95458.38;5050679;28;20363;-65
2022/03/28 00:32:09;;;;;;;10.70;6.30;;;;;;;10.91;53.79;95477.22;5053241;28;20558;-66
2022/03/28 00:34:34;;;;;;;14.33;6.43;;;;;;;11.02;53.88;95474.72;5052782;28;20181;-63
2022/03/28 00:37:00;;;;;;;12.43;6.77;;;;;;;11.07;54.29;95466.75;5034723;28;20311;-66
2022/03/28 00:39:25;;;;;;;11.13;6.63;;;;;;;11.43;52.57;95481.84;5051212;28;20278;-65
2022/03/28 00:41:51;;;;;;;11.27;6.87;;;;;;;11.35;52.07;95484.16;5053546;28;20239;-65
2022/03/28 00:44:18;;;;;;;13.00;6.13;;;;;;;11.00;53.17;95479.09;5052692;28;20178;-61
2022/03/28 00:46:45;;;;;;;10.17;6.33;;;;;;;11.20;51.89;95483.53;5051146;28;20209;-64
2022/03/28 00:49:11;;;;;;;14.07;6.37;;;;;;;10.92;52.83;95472.03;5052540;28;20181;-65
2022/03/28 00:51:37;;;;;;;10.10;7.13;;;;;;;10.42;53.38;95462.16;5052898;28;20574;-66
2022/03/28 00:54:04;;;;;;;14.60;7.20;;;;;;;9.91;54.87;95448.81;5052800;28;20173;-65
2022/03/28 00:56:29;;;;;;;12.10;6.40;;;;;;;9.70;55.90;95447.72;5052388;28;20209;-63
2022/03/28 00:58:55;;;;;;;14.60;6.87;;;;;;;9.41;57.25;95441.31;5052132;28;20180;-64
2022/03/28 01:01:21;;;;;;;13.37;7.43;;;;;;;9.08;58.05;95425.78;5050730;28;20201;-62
2022/03/28 01:03:46;;;;;;;10.83;7.10;;;;;;;9.18;58.49;95430.16;5051227;28;20177;-61
2022/03/28 01:06:12;;;;;;;10.97;6.53;;;;;;;9.41;57.41;95431.16;5051161;28;20725;-64
2022/03/28 01:08:38;;;;;;;11.50;6.53;;;;;;;9.35;58.36;95434.09;5053004;28;20563;-65
2022/03/28 01:11:11;;;;;;;10.90;6.53;;;;;;;9.43;57.49;95443.72;5052351;28;20197;-63
2022/03/28 01:13:39;;;;;;;12.00;6.60;;;;;;;9.50;57.26;95438.13;5052001;28;20192;-64
2022/03/28 01:16:05;;;;;;;11.73;5.90;;;;;;;9.75;57.12;95440.63;5052058;28;20213;-65
2022/03/28 01:18:31;;;;;;;8.73;6.23;;;;;;;9.68;57.53;95439.41;5052544;28;20205;-61
2022/03/28 01:20:58;;;;;;;9.50;6.10;;;;;;;9.74;57.07;95444.06;5051140;28;20193;-62
2022/03/28 01:23:24;;;;;;;11.23;6.63;;;;;;;9.93;57.29;95446.16;5052437;28;20204;-65
2022/03/28 01:25:53;;;;;;;11.17;6.57;;;;;;;10.13;55.95;95448.97;5050548;28;20197;-63
2022/03/28 01:28:24;;;;;;;13.23;7.27;;;;;;;10.33;55.07;95446.72;5051858;28;20200;-64
2022/03/28 01:30:51;;;;;;;11.97;6.93;;;;;;;10.16;56.08;95447.91;5052036;28;20268;-67
2022/03/28 01:33:16;;;;;;;10.30;7.33;;;;;;;10.33;55.76;95455.16;5052682;28;20177;-61
2022/03/28 01:35:44;;;;;;;11.87;6.90;;;;;;;10.32;55.43;95457.84;5051644;28;20271;-63
2022/03/28 01:38:15;;;;;;;10.43;7.00;;;;;;;10.20;56.06;95448.53;5052242;28;20182;-65
2022/03/28 01:40:43;;;;;;;13.00;7.53;;;;;;;10.18;55.88;95440.22;5053401;28;20202;-61
2022/03/28 01:43:09;;;;;;;12.43;7.27;;;;;;;10.00;56.94;95440.53;5056758;28;20204;-65
2022/03/28 01:45:35;;;;;;;13.63;7.87;;;;;;;10.01;56.28;95436.28;5054334;28;20197;-65
2022/03/28 01:48:01;;;;;;;9.83;6.40;;;;;;;10.08;55.99;95432.38;5056515;28;20570;-63
2022/03/28 01:50:26;;;;;;;10.67;5.93;;;;;;;10.35;55.71;95439.81;5054831;28;20732;-63
2022/03/28 01:52:52;;;;;;;10.53;6.77;;;;;;;10.16;56.72;95431.88;5055644;28;20182;-61
2022/03/28 01:55:18;;;;;;;15.13;6.93;;;;;;;10.37;55.41;95443.88;5044681;22;20230;-66
2022/03/28 01:57:44;;;;;;;14.27;6.70;;;;;;;10.41;55.38;95447.00;5036061;28;20278;-65
2022/03/28 02:00:18;;;;;;;9.50;6.20;;;;;;;10.68;54.48;95450.94;5036063;28;20190;-62
2022/03/28 02:02:47;;;;;;;9.93;6.53;;;;;;;10.58;54.46;95449.16;5035628;28;20159;-63
2022/03/28 02:05:13;;;;;;;12.83;6.30;;;;;;;10.59;54.54;95448.22;5036413;28;20193;-62
2022/03/28 02:07:40;;;;;;;9.17;6.30;;;;;;;10.53;54.21;95451.19;5041914;23;20308;-63
2022/03/28 02:10:07;;;;;;;12.20;6.70;;;;;;;10.45;55.28;95451.75;5035463;28;20667;-63
2022/03/28 02:12:33;;;;;;;12.20;6.50;;;;;;;10.48;55.83;95443.94;5035831;28;20195;-63
2022/03/28 02:14:58;;;;;;;9.77;6.50;;;;;;;10.43;55.72;95445.97;5035272;28;20178;-61
2022/03/28 02:17:24;;;;;;;10.77;6.73;;;;;;;10.72;54.46;95454.88;5036148;28;20628;-62
2022/03/28 02:19:49;;;;;;;10.53;6.93;;;;;;;10.21;56.37;95434.91;5035485;28;20709;-65
2022/03/28 02:22:15;;;;;;;9.53;6.63;;;;;;;10.22;56.18;95436.53;5035464;28;20206;-64
2022/03/28 02:24:40;;;;;;;14.33;7.70;;;;;;;9.44;59.21;95409.81;5035823;28;20569;-64
2022/03/28 02:27:06;;;;;;;13.53;6.83;;;;;;;9.79;58.42;95424.25;5001503;28;20218;-63
2022/03/28 02:29:32;;;;;;;12.30;6.90;;;;;;;10.02;57.31;95440.41;5035177;28;20269;-62
2022/03/28 02:31:57;;;;;;;14.93;8.20;;;;;;;9.93;57.08;95438.53;5035526;28;20282;-61
2022/03/28 02:34:23;;;;;;;10.17;6.77;;;;;;;10.27;56.52;95449.72;5017209;28;20622;-62
2022/03/28 02:36:48;;;;;;;13.47;7.43;;;;;;;10.07;57.08;95441.75;5034776;28;20243;-64
2022/03/28 02:39:14;;;;;;;20.57;7.33;;;;;;;10.18;56.37;95452.91;5035678;28;20633;-65
2022/03/28 02:41:40;;;;;;;11.30;7.73;;;;;;;10.02;56.98;95443.78;5035333;28;20679;-64
2022/03/28 02:44:05;;;;;;;15.17;7.23;;;;;;;10.08;56.75;95445.06;5035807;28;20174;-63
2022/03/28 02:46:31;;;;;;;11.70;7.37;;;;;;;10.07;56.91;95441.75;5017888;28;20205;-64
2022/03/28 02:48:56;;;;;;;12.60;7.07;;;;;;;10.16;56.21;95447.13;5016977;28;20289;-63
2022/03/28 02:51:22;;;;;;;10.47;7.07;;;;;;;10.14;56.47;95453.13;5035286;28;20205;-63
2022/03/28 02:53:47;;;;;;;11.33;7.53;;;;;;;10.17;56.43;95451.28;5016290;28;20222;-63
2022/03/28 02:56:13;;;;;;;10.80;7.50;;;;;;;10.24;55.78;95449.94;5016461;28;20688;-62
2022/03/28 02:58:38;;;;;;;13.43;7.47;;;;;;;10.13;56.79;95459.13;5034352;28;20182;-64
2022/03/28 03:01:03;;;;;;;15.63;7.10;;;;;;;10.06;56.97;95446.91;5034577;28;20352;-61
2022/03/28 03:03:29;;;;;;;14.87;7.70;;;;;;;9.86;58.17;95444.94;5016549;28;20194;-64
2022/03/28 03:05:54;;;;;;;14.40;8.10;;;;;;;10.07;56.91;95453.63;5035179;28;20214;-63
2022/03/28 03:08:20;;;;;;;14.93;7.40;;;;;;;9.90;57.28;95438.72;5034797;28;20564;-65
2022/03/28 03:10:45;;;;;;;17.17;8.50;;;;;;;9.83;57.20;95446.00;5034354;28;20202;-68
2022/03/28 03:13:11;;;;;;;8.47;6.37;;;;;;;9.56;58.20;95436.88;5016524;28;20178;-64
2022/03/28 03:15:38;;;;;;;11.67;6.53;;;;;;;9.17;59.22;95432.81;5034750;28;20206;-61
2022/03/28 03:18:04;;;;;;;16.13;6.80;;;;;;;9.26;59.15;95434.72;5034264;28;20191;-64
2022/03/28 03:20:31;;;;;;;10.80;7.20;;;;;;;9.23;59.72;95428.09;5016215;28;20217;-61
2022/03/28 03:22:57;;;;;;;12.70;7.13;;;;;;;9.19;60.04;95430.97;5034922;28;20620;-63
2022/03/28 03:25:22;;;;;;;10.07;6.33;;;;;;;8.93;60.67;95429.31;5034149;28;20202;-66
2022/03/28 03:27:51;;;;;;;9.83;6.07;;;;;;;8.88;60.55;95428.84;5016583;28;20274;-62
2022/03/28 03:30:17;;;;;;;14.60;6.60;;;;;;;8.77;61.46;95433.78;5034878;28;20194;-64
2022/03/28 03:32:43;;;;;;;10.37;6.70;;;;;;;8.84;61.34;95437.53;5034668;28;20181;-63
2022/03/28 03:35:09;;;;;;;14.50;6.30;;;;;;;8.93;61.57;95447.88;5015831;28;20256;-64
2022/03/28 03:37:34;;;;;;;11.83;6.63;;;;;;;8.76;61.77;95448.19;5033821;28;20206;-62
2022/03/28 03:40:00;;;;;;;11.33;6.37;;;;;;;8.74;66.53;95507.50;5034041;28;20257;-68
2022/03/28 03:42:26;;;;;;;12.33;5.90;;;;;;;8.98;62.92;95538.88;5032677;28;20194;-63
2022/03/28 03:44:51;;;;;;;10.03;6.30;;;;;;;8.97;61.59;95535.53;5016121;28;20178;-64
2022/03/28 03:47:17;;;;;;;13.07;6.63;;;;;;;8.94;62.86;95527.31;5034122;28;20575;-63
2022/03/28 03:49:42;;;;;;;11.10;6.97;;;;;;;8.90;61.62;95529.25;5033676;28;20258;-63
2022/03/28 03:52:10;;;;;;;13.33;7.13;;;;;;;9.06;61.99;95536.66;5011644;28;20293;-64
2022/03/28 03:54:35;;;;;;;12.23;6.80;;;;;;;9.05;61.09;95537.59;5013540;28;20186;-65
2022/03/28 03:57:01;;;;;;;9.77;6.60;;;;;;;8.93;62.07;95525.69;5013720;28;20708;-60
2022/03/28 03:59:26;;;;;;;17.63;7.23;;;;;;;9.10;61.36;95540.63;5054976;23;20244;-65
2022/03/28 04:01:52;;;;;;;14.03;6.73;;;;;;;9.13;60.41;95545.53;5053441;28;20737;-66
2022/03/28 04:04:17;;;;;;;14.97;7.97;;;;;;;9.04;60.29;95535.97;5053891;28;20192;-64
2022/03/28 04:06:43;;;;;;;12.47;7.37;;;;;;;8.82;62.11;95528.09;5057131;28;20205;-65
2022/03/28 04:09:08;;;;;;;15.57;7.43;;;;;;;8.60;62.59;95512.63;5053813;28;20190;-63
2022/03/28 04:11:34;;;;;;;12.83;6.67;;;;;;;8.55;63.10;95517.97;5052931;28;20205;-66
2022/03/28 04:13:59;;;;;;;10.73;7.03;;;;;;;8.27;64.51;95495.28;5051678;28;20376;-65
2022/03/28 04:16:24;;;;;;;13.77;6.87;;;;;;;8.22;65.17;95490.47;5051684;28;20601;-66
2022/03/28 04:18:50;;;;;;;12.80;7.27;;;;;;;8.06;65.91;95487.25;5053246;28;20268;-63
2022/03/28 04:21:15;;;;;;;15.17;7.23;;;;;;;7.99;65.70;95486.03;5052831;28;20289;-62
2022/03/28 04:23:41;;;;;;;12.27;6.37;;;;;;;8.08;66.23;95492.25;5053497;28;20235;-65
2022/03/28 04:26:06;;;;;;;11.00;7.33;;;;;;;7.98;66.50;95491.97;5052878;28;20197;-64
2022/03/28 04:28:32;;;;;;;10.07;6.70;;;;;;;7.98;66.42;95494.50;5052564;28;20212;-63
2022/03/28 04:30:58;;;;;;;10.90;6.77;;;;;;;7.94;66.65;95488.00;5052708;28;20232;-65
2022/03/28 04:33:23;;;;;;;11.70;6.57;;;;;;;7.88;67.15;95480.78;5051341;28;20731;-63
2022/03/28 04:35:49;;;;;;;13.13;7.23;;;;;;;8.00;67.45;95485.09;5052384;28;20198;-66
2022/03/28 04:38:14;;;;;;;13.77;6.87;;;;;;;8.14;66.41;95495.19;5051121;28;20216;-64
2022/03/28 04:40:40;;;;;;;16.63;7.33;;;;;;;7.98;66.79;95481.06;5052280;28;20212;-62
2022/03/28 04:43:06;;;;;;;15.73;6.93;;;;;;;7.81;68.19;95474.47;5053617;28;20189;-66
2022/03/28 04:45:32;;;;;;;14.63;7.80;;;;;;;7.84;67.99;95479.34;5050654;28;20197;-63
2022/03/28 04:47:58;;;;;;;17.87;8.53;;;;;;;7.95;67.34;95482.06;5052005;28;20717;-65
2022/03/28 04:50:23;;;;;;;16.03;8.23;;;;;;;8.11;67.23;95487.78;5052480;28;20198;-63
2022/03/28 04:52:49;;;;;;;15.67;8.47;;;;;;;8.03;66.97;95484.94;5050608;28;20185;-62
2022/03/28 04:55:14;;;;;;;16.30;7.70;;;;;;;7.72;68.82;95456.50;5051868;28;20204;-63
2022/03/28 04:57:40;;;;;;;11.90;7.20;;;;;;;7.87;69.34;95471.59;5051841;28;20686;-63
2022/03/28 05:00:08;;;;;;;12.97;7.10;;;;;;;9.02;93.44;95555.53;5053030;28;20219;-66
2022/03/28 05:02:34;;;;;;;14.73;6.80;;;;;;;9.66;69.85;95719.69;5052010;28;20193;-64
2022/03/28 05:05:02;;;;;;;16.07;7.73;;;;;;;9.67;66.15;95714.53;5051714;28;20268;-65
2022/03/28 05:07:29;;;;;;;14.27;7.70;;;;;;;9.62;66.96;95686.06;5051695;28;20585;-63
2022/03/28 05:09:56;;;;;;;13.03;8.13;;;;;;;9.69;64.44;95717.78;5051778;28;20277;-63
2022/03/28 05:12:25;;;;;;;15.80;8.33;;;;;;;9.52;63.87;95707.06;5051705;28;20177;-65
2022/03/28 05:14:51;;;;;;;14.07;9.13;;;;;;;9.28;63.85;95702.63;5051708;28;20184;-64
2022/03/28 05:17:21;;;;;;;23.83;8.40;;;;;;;9.05;64.95;95685.50;5051606;28;20209;-62
2022/03/28 05:19:46;;;;;;;14.97;9.17;;;;;;;8.94;65.96;95651.56;5033827;28;20177;-64
2022/03/28 05:22:12;;;;;;;16.83;8.30;;;;;;;9.08;64.44;95676.88;5050454;28;20193;-63
2022/03/28 05:24:37;;;;;;;14.57;8.67;;;;;;;9.10;64.34;95685.22;5051436;28;20505;-66
2022/03/28 05:27:03;;;;;;;18.30;8.20;;;;;;;8.88;65.28;95655.31;5051688;28;20242;-63
2022/03/28 05:29:28;;;;;;;17.03;8.63;;;;;;;9.12;64.77;95668.16;5052084;28;20186;-63
2022/03/28 05:31:54;;;;;;;17.10;8.77;;;;;;;9.06;64.44;95664.31;5051737;28;20198;-64
2022/03/28 05:34:19;;;;;;;24.00;9.60;;;;;;;9.18;63.38;95685.53;5050398;28;20190;-64
2022/03/28 05:36:45;;;;;;;18.67;9.83;;;;;;;8.94;63.91;95669.31;5051084;28;20594;-63
2022/03/28 05:39:12;;;;;;;17.87;10.83;;;;;;;9.04;64.06;95657.69;5053543;28;20231;-63
2022/03/28 05:41:39;;;;;;;20.87;11.50;;;;;;;8.92;63.90;95661.00;5051711;28;20193;-65
2022/03/28 05:44:05;;;;;;;26.23;12.40;;;;;;;8.85;64.54;95652.13;5047891;23;20229;-66
2022/03/28 05:46:30;;;;;;;21.43;11.40;;;;;;;9.04;63.73;95667.84;5032063;28;20556;-66
2022/03/28 05:48:56;;;;;;;21.87;12.93;;;;;;;8.93;63.88;95667.69;5032463;28;20236;-63
2022/03/28 05:51:21;;;;;;;27.13;13.10;;;;;;;9.05;64.49;95670.28;5031678;28;20255;-65
2022/03/28 05:53:47;;;;;;;26.83;12.93;;;;;;;9.11;63.70;95674.97;5032022;28;20185;-63
2022/03/28 05:56:12;;;;;;;26.87;13.80;;;;;;;9.14;63.55;95663.81;5031991;28;20202;-63
2022/03/28 05:58:38;;;;;;;22.90;12.43;;;;;;;9.19;63.53;95682.13;5031947;28;20244;-64
2022/03/28 06:01:03;;;;;;;23.90;13.30;;;;;;;9.16;63.43;95679.75;5032128;28;20205;-64
2022/03/28 06:03:29;;;;;;;27.60;13.43;;;;;;;8.99;63.35;95672.38;5014095;28;20181;-65
2022/03/28 06:05:55;;;;;;;25.83;12.30;;;;;;;8.90;64.46;95650.94;5031595;28;20264;-65
2022/03/28 06:08:21;;;;;;;27.13;12.67;;;;;;;8.99;63.79;95672.38;5031881;28;20182;-65
2022/03/28 06:10:47;;;;;;;26.03;13.60;;;;;;;8.90;63.62;95662.81;5013648;28;20293;-63
2022/03/28 06:13:13;;;;;;;27.30;13.47;;;;;;;8.64;64.91;95644.16;5031981;28;20191;-63
2022/03/28 06:15:39;;;;;;;25.43;12.23;;;;;;;8.56;65.87;95633.66;5031308;28;20198;-65
2022/03/28 06:18:05;;;;;;;28.07;11.93;;;;;;;8.77;64.54;95654.31;5031983;28;20178;-63
2022/03/28 06:20:32;;;;;;;24.93;12.67;;;;;;;8.77;65.71;95641.66;5032163;28;20246;-64
2022/03/28 06:22:58;;;;;;;26.63;12.57;;;;;;;9.01;64.46;95668.84;5032006;28;20194;-63
2022/03/28 06:25:24;;;;;;;18.93;11.50;;;;;;;8.93;64.79;95652.47;5031429;28;20209;-64
2022/03/28 06:27:50;;;;;;;19.00;12.10;;;;;;;8.94;65.48;95636.34;5038679;23;20234;-65
2022/03/28 06:30:15;;;;;;;21.17;11.60;;;;;;;9.19;64.01;95666.88;5035158;28;20206;-64
2022/03/28 06:32:41;;;;;;;22.57;11.83;;;;;;;9.39;62.64;95683.38;5035270;28;20671;-65
2022/03/28 06:35:08;;;;;;;21.83;12.17;;;;;;;9.46;62.87;95689.69;5042432;23;20266;-65
2022/03/28 06:37:34;;;;;;;23.20;12.00;;;;;;;9.51;63.43;95677.53;5053427;28;20290;-66
2022/03/28 06:40:00;;;;;;;24.30;12.67;;;;;;;9.44;63.54;95666.94;5055691;28;20182;-65
2022/03/28 06:42:26;;;;;;;20.03;11.93;;;;;;;9.61;64.04;95653.19;5055209;28;20711;-65
2022/03/28 06:44:52;;;;;;;20.80;12.40;;;;;;;9.85;63.39;95676.97;5054927;28;20315;-63
2022/03/28 06:47:17;;;;;;;18.83;11.10;;;;;;;9.99;63.21;95680.22;5054758;28;20193;-62
2022/03/28 06:49:43;;;;;;;22.43;11.87;;;;;;;10.26;62.21;95707.31;5054431;28;20189;-62
2022/03/28 06:52:09;;;;;;;22.37;11.37;;;;;;;10.35;62.34;95691.41;5054469;28;20679;-63
2022/03/28 06:54:35;;;;;;;17.37;10.70;;;;;;;10.56;60.95;95730.66;5054519;28;20231;-65
2022/03/28 06:57:04;;;;;;;17.73;11.13;;;;;;;10.54;60.32;95735.03;5054236;28;20231;-63
2022/03/28 06:59:29;;;;;;;23.70;12.03;;;;;;;10.70;60.24;95722.91;5054666;28;20190;-65
2022/03/28 07:01:57;;;;;;;17.40;10.73;;;;;;;10.82;59.93;95719.53;5054724;28;20197;-66
2022/03/28 07:04:23;;;;;;;15.73;10.33;;;;;;;10.84;60.14;95715.16;5053937;28;20212;-64
2022/03/28 07:06:49;;;;;;;18.07;10.00;;;;;;;11.03;60.05;95725.69;5054350;28;20292;-64
2022/03/28 07:09:14;;;;;;;16.70;10.47;;;;;;;11.01;60.29;95717.34;5052739;28;20213;-67
2022/03/28 07:11:40;;;;;;;20.10;9.47;;;;;;;11.25;59.39;95725.00;5054048;28;20203;-64
2022/03/28 07:14:05;;;;;;;23.93;12.90;;;;;;;11.33;60.94;95699.84;5055166;28;20193;-65
2022/03/28 07:16:31;;;;;;;14.33;7.60;;;;;;;12.67;94.75;95495.94;5054690;28;20213;-65
2022/03/28 07:19:04;;;;;;;17.23;10.60;;;;;;;12.89;59.55;95796.97;5053939;28;20236;-63
2022/03/28 07:21:29;;;;;;;17.37;11.07;;;;;;;12.68;58.68;95768.00;5054567;28;20679;-64
2022/03/28 07:23:55;;;;;;;19.90;11.17;;;;;;;12.63;57.94;95767.50;5054002;28;20607;-65
2022/03/28 07:26:21;;;;;;;16.87;11.20;;;;;;;12.70;57.22;95775.53;5052776;28;20206;-64
2022/03/28 07:28:47;;;;;;;20.43;9.73;;;;;;;12.87;55.87;95796.28;5054141;28;20618;-62
2022/03/28 07:31:13;;;;;;;21.00;10.33;;;;;;;12.68;56.78;95764.63;5052862;28;20240;-63
2022/03/28 07:33:39;;;;;;;18.23;10.77;;;;;;;12.73;57.29;95749.75;5054741;28;20186;-63
2022/03/28 07:36:06;;;;;;;16.27;9.93;;;;;;;12.84;55.99;95773.56;5053864;28;20308;-62
2022/03/28 07:38:32;;;;;;;18.20;11.23;;;;;;;12.64;56.80;95743.63;5037958;23;20234;-63
2022/03/28 07:40:59;;;;;;;14.97;10.53;;;;;;;12.77;56.26;95749.44;5013998;28;20203;-63
2022/03/28 07:43:24;;;;;;;17.73;10.70;;;;;;;12.63;58.28;95706.28;5019656;28;20553;-61
2022/03/28 07:45:52;;;;;;;15.10;9.33;;;;;;;12.53;58.15;95716.38;5013832;28;20198;-60
2022/03/28 07:48:18;;;;;;;14.73;8.23;;;;;;;12.39;57.21;95719.16;5014488;28;20242;-64
2022/03/28 07:50:45;;;;;;;14.73;8.70;;;;;;;12.53;57.61;95721.47;5012193;28;20289;-65
2022/03/28 07:53:11;;;;;;;14.83;9.90;;;;;;;12.87;56.48;95741.88;5014020;28;20217;-66
2022/03/28 07:55:39;;;;;;;17.73;10.27;;;;;;;12.98;56.46;95740.16;5013370;28;20222;-63
2022/03/28 07:58:05;;;;;;;19.77;10.57;;;;;;;12.95;56.70;95734.47;5013185;28;20578;-64
2022/03/28 08:00:31;;;;;;;17.70;9.27;;;;;;;13.21;55.23;95757.06;5013850;28;20574;-63
2022/03/28 08:02:58;;;;;;;16.50;9.63;;;;;;;13.39;54.26;95776.06;5016124;28;20198;-64
2022/03/28 08:05:24;;;;;;;19.53;10.27;;;;;;;12.97;55.91;95738.50;5012494;28;20206;-62
2022/03/28 08:07:51;;;;;;;20.57;9.83;;;;;;;13.10;55.24;95739.22;5014050;28;20195;-61
2022/03/28 08:10:17;;;;;;;22.20;9.90;;;;;;;12.96;55.81;95724.13;5013418;28;20194;-64
2022/03/28 08:12:43;;;;;;;16.87;9.07;;;;;;;13.13;56.43;95713.44;5014391;28;20569;-61
2022/03/28 08:15:11;;;;;;;17.90;10.03;;;;;;;13.14;55.74;95720.19;5013594;28;20709;-62
2022/03/28 08:17:38;;;;;;;19.93;10.50;;;;;;;13.12;56.73;95691.41;5013576;28;20215;-62
2022/03/28 08:20:06;;;;;;;18.37;10.60;;;;;;;13.28;56.01;95708.91;5013148;28;20187;-63
2022/03/28 08:22:33;;;;;;;14.03;10.07;;;;;;;13.57;55.25;95734.72;5028248;28;20283;-65
2022/03/28 08:24:58;;;;;;;13.45;8.05;;;;;;;13.68;54.04;95749.97;5011856;28;20183;-64
2022/03/28 08:27:25;;;;;;;15.13;9.90;;;;;;;13.75;55.08;95717.91;5011964;28;20695;-63
2022/03/28 08:29:50;;;;;;;21.33;9.67;;;;;;;13.75;54.48;95720.47;5013851;28;20232;-63
2022/03/28 08:32:15;;;;;;;18.33;10.20;;;;;;;13.94;53.95;95730.81;5013665;28;20293;-64
2022/03/28 08:34:41;;;;;;;12.50;8.53;;;;;;;14.18;54.35;95721.97;5013580;28;20286;-64
2022/03/28 08:37:09;;;;;;;17.30;8.80;;;;;;;14.45;52.88;95746.25;5013262;28;20230;-63
2022/03/28 08:39:34;;;;;;;20.23;9.55;;;;;;;14.66;52.90;95750.44;5012541;28;20202;-64
2022/03/28 08:42:01;;;;;;;12.90;8.73;;;;;;;14.79;51.98;95742.53;5037519;23;20307;-62
2022/03/28 08:44:33;;;;;;;13.87;7.83;;;;;;;15.09;51.21;95770.66;5032287;28;20187;-66
2022/03/28 08:46:59;;;;;;;16.60;9.90;;;;;;;14.99;49.82;95786.00;5032945;28;20292;-64
2022/03/28 08:49:24;;;;;;;13.65;8.23;;;;;;;15.01;50.19;95771.31;5032411;28;20178;-64
2022/03/28 08:51:51;;;;;;;14.20;7.82;;;;;;;15.26;51.07;95733.38;5031663;28;20229;-64
2022/03/28 08:54:17;;;;;;;14.90;8.80;;;;;;;15.48;49.68;95769.88;5014862;28;20194;-62
2022/03/28 08:56:43;;;;;;;12.57;8.40;;;;;;;15.61;49.04;95779.88;5032363;28;20221;-63
2022/03/28 08:59:08;;;;;;;14.82;8.25;;;;;;;15.73;48.71;95779.63;5033208;28;20216;-64
2022/03/28 09:01:34;;;;;;;14.57;8.32;;;;;;;15.47;48.39;95780.25;5033305;28;20273;-64
2022/03/28 09:04:07;;;;;;;14.45;7.93;;;;;;;15.68;48.56;95760.44;5033597;28;20182;-64
2022/03/28 09:06:38;;;;;;;13.75;7.57;;;;;;;16.04;47.66;95782.09;5032726;28;20212;-63
2022/03/28 09:09:16;;;;;;;11.32;7.00;;;;;;;16.21;49.14;95743.72;5032893;28;20608;-63
2022/03/28 09:11:43;;;;;;;11.93;8.68;;;;;;;16.46;46.40;95814.97;5038490;23;20229;-62
2022/03/28 09:14:34;;;;;;;16.30;9.23;;;;;;;16.64;47.45;95774.84;5032070;28;20565;-63
2022/03/28 09:17:01;;;;;;;14.77;8.57;;;;;;;16.82;46.28;95804.97;5056428;23;20317;-63
2022/03/28 09:19:46;;;;;;;13.65;8.27;;;;;;;16.74;45.39;95808.22;5051730;28;20185;-63
2022/03/28 09:22:14;;;;;;;17.75;9.13;;;;;;;16.77;45.50;95801.06;5051344;28;20206;-65
2022/03/28 09:24:41;;;;;;;14.80;8.38;;;;;;;16.71;45.50;95788.75;5050953;28;20584;-63
2022/03/28 09:27:15;;;;;;;11.30;7.53;;;;;;;16.71;45.19;95791.34;5051277;28;20694;-64
2022/03/28 09:29:59;;;;;;;15.57;7.80;;;;;;;16.97;45.70;95770.97;5051374;28;20564;-63
2022/03/28 09:32:30;;;;;;;16.48;8.93;;;;;;;17.18;44.93;95786.97;5051202;28;20268;-63
2022/03/28 09:35:10;;;;;;;16.58;8.15;;;;;;;17.64;45.19;95778.38;5051072;28;20186;-64
2022/03/28 09:37:48;;;;;;;25.70;8.98;;;;;;;18.09;43.30;95819.50;5049599;28;20204;-64
2022/03/28 09:40:34;;;;;;;19.17;8.70;;;;;;;18.16;42.57;95829.06;5051088;28;20197;-64
2022/03/28 09:43:01;;;;;;;16.88;9.52;;;;;;;18.67;42.41;95815.50;5049585;28;20702;-63
2022/03/28 09:45:31;;;;;;;18.48;9.07;;;;;;;18.53;42.24;95820.38;5051039;28;20210;-65
2022/03/28 09:48:02;;;;;;;18.45;9.43;;;;;;;18.28;41.49;95821.94;5050794;28;20180;-64
2022/03/28 09:50:28;;;;;;;12.98;8.73;;;;;;;18.28;42.31;95796.97;5049317;28;20210;-64
2022/03/28 09:52:54;;;;;;;14.68;9.00;;;;;;;18.79;40.58;95836.66;5050721;28;20599;-63
2022/03/28 09:55:19;;;;;;;19.48;9.07;;;;;;;18.88;39.67;95854.63;5050883;28;20197;-64
2022/03/28 09:57:45;;;;;;;17.70;8.60;;;;;;;18.93;39.79;95830.97;5050690;28;20209;-64
2022/03/28 10:00:13;;;;;;;14.52;8.93;;;;;;;18.99;39.97;95826.00;5051071;28;20647;-62
2022/03/28 10:02:40;;;;;;;15.35;9.15;;;;;;;18.83;40.18;95773.56;5051691;28;20729;-65
2022/03/28 10:05:06;;;;;;;13.98;8.43;;;;;;;18.71;39.82;95764.47;5054879;28;20193;-61
2022/03/28 10:07:33;;;;;;;17.90;8.73;;;;;;;18.70;39.72;95755.13;5054513;28;20212;-65
2022/03/28 10:10:00;;;;;;;15.15;8.45;;;;;;;18.31;39.90;95736.66;5055180;28;20706;-64
2022/03/28 10:12:26;;;;;;;15.77;9.23;;;;;;;18.62;40.40;95711.28;5053973;28;20184;-64
2022/03/28 10:15:01;;;;;;;13.34;7.98;;;;;;;19.07;40.67;95694.59;4905344;28;7846370;-64
2022/03/28 10:17:28;;;;;;;13.65;8.85;;;;;;;19.47;40.18;95688.78;5056424;28;20504;-63
2022/03/28 10:19:54;;;;;;;11.30;8.40;;;;;;;19.57;38.59;95680.88;5054397;28;20177;-65
2022/03/28 10:22:26;;;;;;;19.73;8.48;;;;;;;19.69;38.87;95656.38;5043427;23;20608;-65
2022/03/28 10:24:53;;;;;;;14.07;8.32;;;;;;;19.71;39.30;95631.22;5017289;28;20186;-63
2022/03/28 10:27:20;;;;;;;15.70;7.50;;;;;;;19.64;39.29;95630.25;5035472;28;20649;-64
2022/03/28 10:29:45;;;;;;;11.68;7.80;;;;;;;19.54;38.88;95635.56;5017346;28;20273;-63
2022/03/28 10:32:20;;;;;;;11.82;7.28;;;;;;;19.54;38.50;95635.56;5035227;28;20281;-63
2022/03/28 10:34:49;;;;;;;10.93;8.52;;;;;;;19.52;38.07;95629.75;5036437;28;20194;-64
2022/03/28 10:37:26;;;;;;;11.95;7.28;;;;;;;19.49;37.92;95631.84;5035141;28;20205;-63
2022/03/28 10:40:15;;;;;;;12.48;7.47;;;;;;;18.80;37.94;95608.97;5034975;28;20620;-64
2022/03/28 10:43:11;;;;;;;11.68;7.75;;;;;;;18.77;38.08;95606.69;5016893;28;20182;-63
2022/03/28 10:45:50;;;;;;;13.80;7.20;;;;;;;18.97;38.33;95595.97;5034506;28;20646;-64
2022/03/28 10:48:17;;;;;;;18.40;8.05;;;;;;;19.01;38.29;95581.78;5035036;28;20178;-64
2022/03/28 10:50:51;;;;;;;10.23;6.88;;;;;;;19.24;38.44;95575.06;5035939;28;20212;-65
2022/03/28 10:53:33;;;;;;;15.48;7.28;;;;;;;19.09;39.13;95556.03;5016645;28;20184;-65
2022/03/28 10:56:12;;;;;;;13.18;7.40;;;;;;;19.11;38.56;95569.56;5016564;28;20206;-63
2022/03/28 10:58:44;;;;;;;13.48;6.97;;;;;;;19.11;38.79;95564.41;5025343;28;20182;-65
2022/03/28 11:01:12;;;;;;;18.27;8.05;;;;;;;18.73;38.95;95549.53;5035653;28;20205;-65
2022/03/28 11:03:47;;;;;;;16.10;8.60;;;;;;;18.68;38.58;95558.69;5035459;28;20183;-63
2022/03/28 11:06:15;;;;;;;12.15;7.57;;;;;;;18.81;38.53;95539.22;5035267;28;20242;-64
2022/03/28 11:08:44;;;;;;;11.70;6.88;;;;;;;18.71;39.70;95510.22;5016674;28;20566;-64
2022/03/28 11:11:21;;;;;;;13.50;7.82;;;;;;;18.89;38.81;95539.25;5034499;28;20206;-64
2022/03/28 11:14:09;;;;;;;15.05;7.72;;;;;;;18.95;39.12;95524.91;5033585;28;20181;-65
2022/03/28 11:16:39;;;;;;;12.93;6.85;;;;;;;19.05;39.30;95521.22;5033965;28;20353;-64
2022/03/28 11:19:25;;;;;;;14.68;6.95;;;;;;;19.03;39.57;95507.69;5033905;28;20167;-65
2022/03/28 11:22:03;;;;;;;10.43;6.50;;;;;;;19.17;39.43;95503.66;5016352;28;20287;-65
2022/03/28 11:24:42;;;;;;;15.95;7.32;;;;;;;19.16;38.32;95528.66;5016468;28;20668;-63
2022/03/28 11:27:12;;;;;;;12.25;7.50;;;;;;;18.73;39.10;95499.75;5036269;28;20217;-64